sensor_id;sensor_type;location;lat;lon;timestamp;pressure;altitude;pressure_sealevel;temperature;humidity
60373;BME280;46216;52.220;5.134;2022-12-07T00:00:14;102067.00;;;4.53;100.00
60373;BME280;46216;52.220;5.134;2022-12-07T00:02:39;102060.97;;;4.47;100.00
60373;BME280;46216;52.220;5.134;2022-12-07T00:05:05;102067.09;;;4.48;100.00
60373;BME280;46216;52.220;5.134;2022-12-07T00:07:30;102060.16;;;4.45;100.00
60373;BME280;46216;52.220;5.134;2022-12-07T00:09:55;102059.28;;;4.45;100.00
60373;BME280;46216;52.220;5.134;2022-12-07T00:12:21;102057.56;;;4.44;100.00
60373;BME280;46216;52.220;5.134;2022-12-07T00:14:46;102062.81;;;4.44;100.00
60373;BME280;46216;52.220;5.134;2022-12-07T00:17:11;102059.28;;;4.45;100.00
60373;BME280;46216;52.220;5.134;2022-12-07T00:19:37;102051.41;;;4.43;100.00
60373;BME280;46216;52.220;5.134;2022-12-07T00:22:02;102049.59;;;4.45;100.00
60373;BME280;46216;52.220;5.134;2022-12-07T00:24:27;102049.63;;;4.44;100.00
60373;BME280;46216;52.220;5.134;2022-12-07T00:26:53;102038.28;;;4.40;100.00
60373;BME280;46216;52.220;5.134;2022-12-07T00:29:20;102032.16;;;4.40;100.00
60373;BME280;46216;52.220;5.134;2022-12-07T00:31:47;102034.84;;;4.38;100.00
60373;BME280;46216;52.220;5.134;2022-12-07T00:34:16;102044.56;;;4.36;100.00
60373;BME280;46216;52.220;5.134;2022-12-07T00:36:41;102033.22;;;4.33;100.00
60373;BME280;46216;52.220;5.134;2022-12-07T00:39:07;102029.84;;;4.27;100.00
60373;BME280;46216;52.220;5.134;2022-12-07T00:41:32;102030.81;;;4.25;100.00
60373;BME280;46216;52.220;5.134;2022-12-07T00:43:58;102022.97;;;4.22;100.00
60373;BME280;46216;52.220;5.134;2022-12-07T00:46:24;102022.22;;;4.17;100.00
60373;BME280;46216;52.220;5.134;2022-12-07T00:48:50;102031.06;;;4.16;100.00
60373;BME280;46216;52.220;5.134;2022-12-07T00:51:17;102033.00;;;4.09;100.00
60373;BME280;46216;52.220;5.134;2022-12-07T00:53:43;102028.72;;;4.05;100.00
60373;BME280;46216;52.220;5.134;2022-12-07T00:56:11;102032.34;;;4.01;100.00
60373;BME280;46216;52.220;5.134;2022-12-07T00:58:37;102035.94;;;3.97;100.00
60373;BME280;46216;52.220;5.134;2022-12-07T01:01:04;102025.50;;;3.92;100.00
60373;BME280;46216;52.220;5.134;2022-12-07T01:03:30;102027.22;;;3.95;100.00
60373;BME280;46216;52.220;5.134;2022-12-07T01:05:56;102028.16;;;3.92;100.00
60373;BME280;46216;52.220;5.134;2022-12-07T01:08:24;102027.38;;;3.89;100.00
60373;BME280;46216;52.220;5.134;2022-12-07T01:11:04;102017.91;;;3.80;100.00
60373;BME280;46216;52.220;5.134;2022-12-07T01:13:30;102024.88;;;3.83;100.00
60373;BME280;46216;52.220;5.134;2022-12-07T01:15:58;102020.53;;;3.82;100.00
60373;BME280;46216;52.220;5.134;2022-12-07T01:18:25;102022.41;;;3.76;100.00
60373;BME280;46216;52.220;5.134;2022-12-07T01:21:00;102025.94;;;3.75;100.00
60373;BME280;46216;52.220;5.134;2022-12-07T01:23:25;102032.94;;;3.76;100.00
60373;BME280;46216;52.220;5.134;2022-12-07T01:25:55;102027.84;;;3.70;100.00
60373;BME280;46216;52.220;5.134;2022-12-07T01:28:20;102027.75;;;3.73;100.00
60373;BME280;46216;52.220;5.134;2022-12-07T01:31:01;102027.00;;;3.68;100.00
60373;BME280;46216;52.220;5.134;2022-12-07T01:33:29;102025.31;;;3.66;100.00
60373;BME280;46216;52.220;5.134;2022-12-07T01:36:00;102031.44;;;3.66;100.00
60373;BME280;46216;52.220;5.134;2022-12-07T01:38:25;102036.78;;;3.63;100.00
60373;BME280;46216;52.220;5.134;2022-12-07T01:40:55;102036.03;;;3.58;100.00
60373;BME280;46216;52.220;5.134;2022-12-07T01:43:22;102041.44;;;3.53;100.00
60373;BME280;46216;52.220;5.134;2022-12-07T01:45:48;102045.81;;;3.53;100.00
60373;BME280;46216;52.220;5.134;2022-12-07T01:48:16;102044.06;;;3.53;100.00
60373;BME280;46216;52.220;5.134;2022-12-07T01:50:45;102046.59;;;3.56;100.00
60373;BME280;46216;52.220;5.134;2022-12-07T01:53:13;102042.03;;;3.65;100.00
60373;BME280;46216;52.220;5.134;2022-12-07T01:55:42;102035.69;;;3.72;100.00
60373;BME280;46216;52.220;5.134;2022-12-07T01:58:10;102025.88;;;3.78;100.00
60373;BME280;46216;52.220;5.134;2022-12-07T02:00:36;102027.56;;;3.81;100.00
60373;BME280;46216;52.220;5.134;2022-12-07T02:05:34;102027.28;;;3.92;100.00
60373;BME280;46216;52.220;5.134;2022-12-07T02:08:01;102021.94;;;3.95;100.00
60373;BME280;46216;52.220;5.134;2022-12-07T02:10:29;102017.44;;;3.98;100.00
60373;BME280;46216;52.220;5.134;2022-12-07T02:13:02;102023.53;;;4.00;100.00
60373;BME280;46216;52.220;5.134;2022-12-07T02:15:53;102020.81;;;4.03;100.00
60373;BME280;46216;52.220;5.134;2022-12-07T02:21:20;102018.06;;;4.08;100.00
60373;BME280;46216;52.220;5.134;2022-12-07T02:34:47;102009.25;;;4.09;100.00
60373;BME280;46216;52.220;5.134;2022-12-07T02:37:29;102012.75;;;4.10;100.00
60373;BME280;46216;52.220;5.134;2022-12-07T02:40:06;102010.09;;;4.10;100.00
60373;BME280;46216;52.220;5.134;2022-12-07T02:42:37;102007.53;;;4.08;100.00
60373;BME280;46216;52.220;5.134;2022-12-07T02:45:05;102021.56;;;4.09;100.00
60373;BME280;46216;52.220;5.134;2022-12-07T02:47:33;102026.94;;;4.04;100.00
60373;BME280;46216;52.220;5.134;2022-12-07T02:49:59;102018.09;;;4.07;100.00
60373;BME280;46216;52.220;5.134;2022-12-07T02:52:25;102009.25;;;4.09;100.00
60373;BME280;46216;52.220;5.134;2022-12-07T02:54:50;102002.06;;;4.14;100.00
60373;BME280;46216;52.220;5.134;2022-12-07T02:57:38;102002.16;;;4.11;100.00
60373;BME280;46216;52.220;5.134;2022-12-07T03:00:09;102008.16;;;4.16;100.00
60373;BME280;46216;52.220;5.134;2022-12-07T03:05:23;102008.81;;;4.24;100.00
60373;BME280;46216;52.220;5.134;2022-12-07T03:11:21;102001.81;;;4.23;100.00
60373;BME280;46216;52.220;5.134;2022-12-07T03:16:31;102000.34;;;4.13;100.00
60373;BME280;46216;52.220;5.134;2022-12-07T03:19:01;101996.00;;;4.11;100.00
60373;BME280;46216;52.220;5.134;2022-12-07T03:21:31;101998.84;;;4.03;100.00
60373;BME280;46216;52.220;5.134;2022-12-07T03:24:00;102003.28;;;4.02;100.00
60373;BME280;46216;52.220;5.134;2022-12-07T03:26:32;101998.94;;;4.00;100.00
60373;BME280;46216;52.220;5.134;2022-12-07T03:29:02;102006.13;;;3.95;100.00
60373;BME280;46216;52.220;5.134;2022-12-07T03:31:37;102006.19;;;3.92;100.00
60373;BME280;46216;52.220;5.134;2022-12-07T03:34:13;102001.84;;;3.91;100.00
60373;BME280;46216;52.220;5.134;2022-12-07T03:36:57;102006.28;;;3.89;100.00
60373;BME280;46216;52.220;5.134;2022-12-07T03:39:33;102003.75;;;3.84;100.00
60373;BME280;46216;52.220;5.134;2022-12-07T03:42:03;102008.25;;;3.81;100.00
60373;BME280;46216;52.220;5.134;2022-12-07T03:44:31;102005.63;;;3.79;100.00
60373;BME280;46216;52.220;5.134;2022-12-07T03:47:16;101999.63;;;3.74;100.00
60373;BME280;46216;52.220;5.134;2022-12-07T03:49:51;101996.09;;;3.73;100.00
60373;BME280;46216;52.220;5.134;2022-12-07T03:52:36;101997.84;;;3.74;100.00
60373;BME280;46216;52.220;5.134;2022-12-07T03:55:24;101995.16;;;3.76;100.00
60373;BME280;46216;52.220;5.134;2022-12-07T03:57:54;101990.69;;;3.79;100.00
60373;BME280;46216;52.220;5.134;2022-12-07T04:00:21;101988.03;;;3.81;100.00
60373;BME280;46216;52.220;5.134;2022-12-07T04:02:47;101981.00;;;3.80;100.00
60373;BME280;46216;52.220;5.134;2022-12-07T04:05:12;101984.47;;;3.82;100.00
60373;BME280;46216;52.220;5.134;2022-12-07T04:07:38;101981.78;;;3.84;100.00
60373;BME280;46216;52.220;5.134;2022-12-07T04:10:05;101978.28;;;3.83;100.00
60373;BME280;46216;52.220;5.134;2022-12-07T04:12:31;101977.41;;;3.83;100.00
60373;BME280;46216;52.220;5.134;2022-12-07T04:14:56;101980.97;;;3.82;100.00
60373;BME280;46216;52.220;5.134;2022-12-07T04:17:21;101972.28;;;3.78;100.00
60373;BME280;46216;52.220;5.134;2022-12-07T04:19:47;101997.00;;;3.74;100.00
60373;BME280;46216;52.220;5.134;2022-12-07T04:22:12;102020.91;;;3.66;100.00
60373;BME280;46216;52.220;5.134;2022-12-07T04:24:38;102003.31;;;3.67;100.00
60373;BME280;46216;52.220;5.134;2022-12-07T04:27:03;102001.56;;;3.67;100.00
60373;BME280;46216;52.220;5.134;2022-12-07T04:29:29;101980.41;;;3.70;100.00
60373;BME280;46216;52.220;5.134;2022-12-07T04:31:54;101989.09;;;3.72;100.00
60373;BME280;46216;52.220;5.134;2022-12-07T04:34:19;101981.97;;;3.77;100.00
60373;BME280;46216;52.220;5.134;2022-12-07T04:36:46;101980.09;;;3.81;100.00
60373;BME280;46216;52.220;5.134;2022-12-07T04:39:21;101977.41;;;3.83;100.00
60373;BME280;46216;52.220;5.134;2022-12-07T04:41:48;101975.47;;;3.89;100.00
60373;BME280;46216;52.220;5.134;2022-12-07T04:44:14;101980.75;;;3.91;100.00
60373;BME280;46216;52.220;5.134;2022-12-07T04:46:40;101977.19;;;3.92;100.00
60373;BME280;46216;52.220;5.134;2022-12-07T04:49:06;101977.22;;;3.90;100.00
60373;BME280;46216;52.220;5.134;2022-12-07T04:51:31;101976.34;;;3.90;100.00
60373;BME280;46216;52.220;5.134;2022-12-07T04:53:56;101968.50;;;3.87;100.00
60373;BME280;46216;52.220;5.134;2022-12-07T04:56:22;101977.41;;;3.84;100.00
60373;BME280;46216;52.220;5.134;2022-12-07T04:58:48;101969.50;;;3.83;100.00
60373;BME280;46216;52.220;5.134;2022-12-07T05:01:16;101964.31;;;3.79;100.00
60373;BME280;46216;52.220;5.134;2022-12-07T05:03:41;101969.63;;;3.78;100.00
60373;BME280;46216;52.220;5.134;2022-12-07T05:06:08;101971.41;;;3.77;100.00
60373;BME280;46216;52.220;5.134;2022-12-07T05:08:34;101962.59;;;3.78;100.00
60373;BME280;46216;52.220;5.134;2022-12-07T05:11:00;101966.16;;;3.76;100.00
60373;BME280;46216;52.220;5.134;2022-12-07T05:13:26;101967.94;;;3.75;100.00
60373;BME280;46216;52.220;5.134;2022-12-07T05:15:51;101961.03;;;3.71;100.00
60373;BME280;46216;52.220;5.134;2022-12-07T05:18:17;101963.69;;;3.70;100.00
60373;BME280;46216;52.220;5.134;2022-12-07T05:20:43;101968.16;;;3.68;100.00
60373;BME280;46216;52.220;5.134;2022-12-07T05:23:08;101964.81;;;3.61;100.00
60373;BME280;46216;52.220;5.134;2022-12-07T05:25:33;101968.34;;;3.60;100.00
60373;BME280;46216;52.220;5.134;2022-12-07T05:27:59;101971.88;;;3.59;100.00
60373;BME280;46216;52.220;5.134;2022-12-07T05:30:26;101967.59;;;3.55;100.00
60373;BME280;46216;52.220;5.134;2022-12-07T05:32:52;101976.34;;;3.55;100.00
60373;BME280;46216;52.220;5.134;2022-12-07T05:35:18;101979.00;;;3.55;100.00
60373;BME280;46216;52.220;5.134;2022-12-07T05:37:43;101971.00;;;3.59;100.00
60373;BME280;46216;52.220;5.134;2022-12-07T05:40:10;101961.31;;;3.59;100.00
60373;BME280;46216;52.220;5.134;2022-12-07T05:42:36;101971.00;;;3.59;100.00
60373;BME280;46216;52.220;5.134;2022-12-07T05:45:03;101965.78;;;3.57;100.00
60373;BME280;46216;52.220;5.134;2022-12-07T05:47:29;101966.69;;;3.56;100.00
60373;BME280;46216;52.220;5.134;2022-12-07T05:49:54;101961.38;;;3.58;100.00
60373;BME280;46216;52.220;5.134;2022-12-07T05:52:20;101963.94;;;3.61;100.00
60373;BME280;46216;52.220;5.134;2022-12-07T05:54:46;101954.34;;;3.58;100.00
60373;BME280;46216;52.220;5.134;2022-12-07T05:57:11;101971.88;;;3.59;100.00
60373;BME280;46216;52.220;5.134;2022-12-07T05:59:36;101960.47;;;3.59;100.00
60373;BME280;46216;52.220;5.134;2022-12-07T06:02:05;101964.03;;;3.58;100.00
60373;BME280;46216;52.220;5.134;2022-12-07T06:04:33;101959.59;;;3.58;100.00
60373;BME280;46216;52.220;5.134;2022-12-07T06:06:59;101956.06;;;3.59;100.00
60373;BME280;46216;52.220;5.134;2022-12-07T06:09:27;101964.81;;;3.61;100.00
60373;BME280;46216;52.220;5.134;2022-12-07T06:11:53;101964.81;;;3.61;100.00
60373;BME280;46216;52.220;5.134;2022-12-07T06:14:37;101969.13;;;3.64;100.00
60373;BME280;46216;52.220;5.134;2022-12-07T06:17:03;101966.50;;;3.64;100.00
60373;BME280;46216;52.220;5.134;2022-12-07T06:19:28;101971.78;;;3.62;100.00
60373;BME280;46216;52.220;5.134;2022-12-07T06:21:54;101967.50;;;3.58;100.00
60373;BME280;46216;52.220;5.134;2022-12-07T06:24:19;101977.22;;;3.56;100.00
60373;BME280;46216;52.220;5.134;2022-12-07T06:26:45;101966.69;;;3.56;100.00
60373;BME280;46216;52.220;5.134;2022-12-07T06:29:11;101962.19;;;3.60;100.00
60373;BME280;46216;52.220;5.134;2022-12-07T06:31:37;101954.22;;;3.63;100.00
60373;BME280;46216;52.220;5.134;2022-12-07T06:34:06;101961.09;;;3.68;100.00
60373;BME280;46216;52.220;5.134;2022-12-07T06:36:31;101962.75;;;3.72;100.00
60373;BME280;46216;52.220;5.134;2022-12-07T06:38:57;101957.47;;;3.72;100.00
60373;BME280;46216;52.220;5.134;2022-12-07T06:41:23;101967.09;;;3.75;100.00
60373;BME280;46216;52.220;5.134;2022-12-07T06:43:48;101967.94;;;3.75;100.00
60373;BME280;46216;52.220;5.134;2022-12-07T06:46:14;101970.50;;;3.78;100.00
60373;BME280;46216;52.220;5.134;2022-12-07T06:48:41;101978.25;;;3.85;100.00
60373;BME280;46216;52.220;5.134;2022-12-07T06:51:06;101972.00;;;3.87;100.00
60373;BME280;46216;52.220;5.134;2022-12-07T06:53:32;101964.06;;;3.89;100.00
60373;BME280;46216;52.220;5.134;2022-12-07T06:55:57;101962.28;;;3.91;100.00
60373;BME280;46216;52.220;5.134;2022-12-07T06:58:22;101954.38;;;3.91;100.00
60373;BME280;46216;52.220;5.134;2022-12-07T07:00:48;101956.88;;;3.94;100.00
60373;BME280;46216;52.220;5.134;2022-12-07T07:03:14;101956.78;;;3.98;100.00
60373;BME280;46216;52.220;5.134;2022-12-07T07:05:40;101964.63;;;4.00;100.00
60373;BME280;46216;52.220;5.134;2022-12-07T07:08:05;101958.50;;;3.99;100.00
60373;BME280;46216;52.220;5.134;2022-12-07T07:10:31;101956.81;;;3.97;100.00
60373;BME280;46216;52.220;5.134;2022-12-07T07:12:56;101963.91;;;3.95;100.00
60373;BME280;46216;52.220;5.134;2022-12-07T07:15:21;101961.38;;;3.92;100.00
60373;BME280;46216;52.220;5.134;2022-12-07T07:17:47;101962.31;;;3.89;100.00
60373;BME280;46216;52.220;5.134;2022-12-07T07:20:12;101968.50;;;3.88;100.00
60373;BME280;46216;52.220;5.134;2022-12-07T07:22:37;101958.97;;;3.83;100.00
60373;BME280;46216;52.220;5.134;2022-12-07T07:25:03;101966.16;;;3.77;100.00
60373;BME280;46216;52.220;5.134;2022-12-07T07:27:28;101965.31;;;3.75;100.00
60373;BME280;46216;52.220;5.134;2022-12-07T07:29:55;101966.22;;;3.74;100.00
60373;BME280;46216;52.220;5.134;2022-12-07T07:32:20;101977.63;;;3.75;100.00
60373;BME280;46216;52.220;5.134;2022-12-07T07:34:47;101975.00;;;3.73;100.00
60373;BME280;46216;52.220;5.134;2022-12-07T07:37:12;101977.66;;;3.73;100.00
60373;BME280;46216;52.220;5.134;2022-12-07T07:39:38;101973.38;;;3.69;100.00
60373;BME280;46216;52.220;5.134;2022-12-07T07:42:03;101973.41;;;3.68;100.00
60373;BME280;46216;52.220;5.134;2022-12-07T07:44:29;101972.59;;;3.66;100.00
60373;BME280;46216;52.220;5.134;2022-12-07T07:46:54;101968.25;;;3.63;100.00
60373;BME280;46216;52.220;5.134;2022-12-07T07:49:19;101976.25;;;3.60;100.00
60373;BME280;46216;52.220;5.134;2022-12-07T07:51:45;101968.44;;;3.57;100.00
60373;BME280;46216;52.220;5.134;2022-12-07T07:54:10;101968.38;;;3.59;100.00
60373;BME280;46216;52.220;5.134;2022-12-07T07:56:36;101978.00;;;3.60;100.00
60373;BME280;46216;52.220;5.134;2022-12-07T07:59:01;101978.91;;;3.60;100.00
60373;BME280;46216;52.220;5.134;2022-12-07T08:01:26;101990.31;;;3.59;100.00
60373;BME280;46216;52.220;5.134;2022-12-07T08:03:51;101992.97;;;3.59;100.00
60373;BME280;46216;52.220;5.134;2022-12-07T08:06:17;101991.09;;;3.64;100.00
60373;BME280;46216;52.220;5.134;2022-12-07T08:08:42;101996.22;;;3.70;100.00
60373;BME280;46216;52.220;5.134;2022-12-07T08:11:09;102004.78;;;3.78;100.00
60373;BME280;46216;52.220;5.134;2022-12-07T08:13:35;101995.78;;;3.86;100.00
60373;BME280;46216;52.220;5.134;2022-12-07T08:16:08;101986.91;;;3.90;100.00
60373;BME280;46216;52.220;5.134;2022-12-07T08:18:38;101995.56;;;3.95;100.00
60373;BME280;46216;52.220;5.134;2022-12-07T08:21:05;102011.31;;;3.98;100.00
60373;BME280;46216;52.220;5.134;2022-12-07T08:23:31;101998.84;;;4.03;100.00
60373;BME280;46216;52.220;5.134;2022-12-07T08:26:01;101995.22;;;4.07;100.00
60373;BME280;46216;52.220;5.134;2022-12-07T08:28:27;101999.47;;;4.13;100.00
60373;BME280;46216;52.220;5.134;2022-12-07T08:30:52;101993.19;;;4.17;100.00
60373;BME280;46216;52.220;5.134;2022-12-07T08:33:23;101993.09;;;4.21;100.00
60373;BME280;46216;52.220;5.134;2022-12-07T08:35:48;101997.38;;;4.25;100.00
60373;BME280;46216;52.220;5.134;2022-12-07T08:38:13;102003.25;;;4.35;100.00
60373;BME280;46216;52.220;5.134;2022-12-07T08:40:39;102004.84;;;4.41;100.00
60373;BME280;46216;52.220;5.134;2022-12-07T08:43:04;102001.19;;;4.46;100.00
60373;BME280;46216;52.220;5.134;2022-12-07T08:45:29;102005.50;;;4.49;100.00
60373;BME280;46216;52.220;5.134;2022-12-07T08:48:03;101997.38;;;4.55;100.00
60373;BME280;46216;52.220;5.134;2022-12-07T08:50:29;101993.78;;;4.59;100.00
60373;BME280;46216;52.220;5.134;2022-12-07T08:52:57;101975.22;;;4.62;100.00
60373;BME280;46216;52.220;5.134;2022-12-07T08:55:23;101977.75;;;4.65;100.00
60373;BME280;46216;52.220;5.134;2022-12-07T08:57:49;101979.38;;;4.69;100.00
60373;BME280;46216;52.220;5.134;2022-12-07T09:00:16;101974.78;;;4.76;100.00
60373;BME280;46216;52.220;5.134;2022-12-07T09:02:45;101973.72;;;4.82;100.00
60373;BME280;46216;52.220;5.134;2022-12-07T09:05:11;101977.97;;;4.87;100.00
60373;BME280;46216;52.220;5.134;2022-12-07T09:07:37;101985.78;;;4.90;100.00
60373;BME280;46216;52.220;5.134;2022-12-07T09:10:04;101983.91;;;4.94;100.00
60373;BME280;46216;52.220;5.134;2022-12-07T09:12:30;101983.81;;;4.97;100.00
60373;BME280;46216;52.220;5.134;2022-12-07T09:14:55;101983.81;;;4.97;100.00
60373;BME280;46216;52.220;5.134;2022-12-07T09:17:21;101979.25;;;5.02;100.00
60373;BME280;46216;52.220;5.134;2022-12-07T09:19:46;101983.56;;;5.06;100.00
60373;BME280;46216;52.220;5.134;2022-12-07T09:22:12;101984.16;;;5.14;100.00
60373;BME280;46216;52.220;5.134;2022-12-07T09:24:38;101995.44;;;5.19;100.00
60373;BME280;46216;52.220;5.134;2022-12-07T09:27:03;101985.66;;;5.23;100.00
60373;BME280;46216;52.220;5.134;2022-12-07T09:29:29;101986.44;;;5.27;100.00
60373;BME280;46216;52.220;5.134;2022-12-07T09:31:54;101992.47;;;5.30;100.00
60373;BME280;46216;52.220;5.134;2022-12-07T09:34:19;101991.34;;;5.37;100.00
60373;BME280;46216;52.220;5.134;2022-12-07T09:36:45;101992.16;;;5.39;100.00
60373;BME280;46216;52.220;5.134;2022-12-07T09:39:11;101989.47;;;5.41;100.00
60373;BME280;46216;52.220;5.134;2022-12-07T09:41:43;101987.53;;;5.46;100.00
60373;BME280;46216;52.220;5.134;2022-12-07T09:44:27;101992.72;;;5.49;100.00
60373;BME280;46216;52.220;5.134;2022-12-07T09:46:53;101987.34;;;5.52;100.00
60373;BME280;46216;52.220;5.134;2022-12-07T09:49:21;101981.94;;;5.55;100.00
60373;BME280;46216;52.220;5.134;2022-12-07T09:51:59;101978.28;;;5.59;100.00
60373;BME280;46216;52.220;5.134;2022-12-07T09:54:25;101982.44;;;5.66;100.00
60373;BME280;46216;52.220;5.134;2022-12-07T09:56:51;101975.38;;;5.67;100.00
60373;BME280;46216;52.220;5.134;2022-12-07T09:59:17;101972.63;;;5.70;100.00
60373;BME280;46216;52.220;5.134;2022-12-07T10:01:45;101973.47;;;5.70;100.00
60373;BME280;46216;52.220;5.134;2022-12-07T10:04:15;101979.66;;;5.71;100.00
60373;BME280;46216;52.220;5.134;2022-12-07T10:06:42;101975.25;;;5.70;100.00
60373;BME280;46216;52.220;5.134;2022-12-07T10:09:12;101978.78;;;5.70;100.00
60373;BME280;46216;52.220;5.134;2022-12-07T10:12:03;101969.22;;;5.66;100.00
60373;BME280;46216;52.220;5.134;2022-12-07T10:14:31;101961.19;;;5.69;100.00
60373;BME280;46216;52.220;5.134;2022-12-07T10:16:57;101961.25;;;5.68;100.00
60373;BME280;46216;52.220;5.134;2022-12-07T10:19:31;101966.38;;;5.73;100.00
60373;BME280;46216;52.220;5.134;2022-12-07T10:22:09;101960.06;;;5.77;100.00
60373;BME280;46216;52.220;5.134;2022-12-07T10:24:34;101960.59;;;5.86;100.00
60373;BME280;46216;52.220;5.134;2022-12-07T10:27:02;101957.72;;;5.94;100.00
60373;BME280;46216;52.220;5.134;2022-12-07T10:29:33;101955.78;;;5.99;100.00
60373;BME280;46216;52.220;5.134;2022-12-07T10:32:05;101956.59;;;6.01;100.00
60373;BME280;46216;52.220;5.134;2022-12-07T10:34:34;101945.50;;;6.15;100.00
60373;BME280;46216;52.220;5.134;2022-12-07T10:42:32;101946.91;;;6.25;100.00
60373;BME280;46216;52.220;5.134;2022-12-07T10:45:15;101939.47;;;6.35;100.00
60373;BME280;46216;52.220;5.134;2022-12-07T10:50:47;101942.00;;;6.38;100.00
60373;BME280;46216;52.220;5.134;2022-12-07T10:53:31;101931.50;;;6.35;100.00
60373;BME280;46216;52.220;5.134;2022-12-07T10:59:12;101922.78;;;6.33;100.00
60373;BME280;46216;52.220;5.134;2022-12-07T11:01:57;101916.63;;;6.32;100.00
60373;BME280;46216;52.220;5.134;2022-12-07T11:17:01;101908.84;;;6.28;100.00
60373;BME280;46216;52.220;5.134;2022-12-07T11:22:09;101902.16;;;6.18;100.00
60373;BME280;46216;52.220;5.134;2022-12-07T11:30:34;101891.56;;;6.18;100.00
60373;BME280;46216;52.220;5.134;2022-12-07T11:33:15;101895.91;;;6.20;100.00
60373;BME280;46216;52.220;5.134;2022-12-07T11:38:38;101889.03;;;6.14;100.00
60373;BME280;46216;52.220;5.134;2022-12-07T11:41:08;101872.16;;;6.19;100.00
60373;BME280;46216;52.220;5.134;2022-12-07T11:43:53;101870.28;;;6.21;100.00
60373;BME280;46216;52.220;5.134;2022-12-07T11:46:24;101868.56;;;6.20;100.00
60373;BME280;46216;52.220;5.134;2022-12-07T11:48:58;101870.28;;;6.21;100.00
60373;BME280;46216;52.220;5.134;2022-12-07T11:51:27;101863.06;;;6.26;100.00
60373;BME280;46216;52.220;5.134;2022-12-07T11:54:05;101866.56;;;6.26;100.00
60373;BME280;46216;52.220;5.134;2022-12-07T11:56:37;101863.69;;;6.32;100.00
60373;BME280;46216;52.220;5.134;2022-12-07T11:59:48;101855.47;;;6.38;100.00
60373;BME280;46216;52.220;5.134;2022-12-07T12:02:16;101843.97;;;6.39;100.00
60373;BME280;46216;52.220;5.134;2022-12-07T12:04:58;101847.41;;;6.42;100.00
60373;BME280;46216;52.220;5.134;2022-12-07T12:07:27;101848.97;;;6.47;100.00
60373;BME280;46216;52.220;5.134;2022-12-07T12:10:02;101837.44;;;6.48;100.00
60373;BME280;46216;52.220;5.134;2022-12-07T12:12:53;101835.41;;;6.55;100.00
60373;BME280;46216;52.220;5.134;2022-12-07T12:18:17;101848.59;;;6.78;100.00
60373;BME280;46216;52.220;5.134;2022-12-07T12:20:51;101840.91;;;6.94;100.00
60373;BME280;46216;52.220;5.134;2022-12-07T12:25:49;101833.44;;;7.24;100.00
60373;BME280;46216;52.220;5.134;2022-12-07T12:28:40;101844.22;;;7.40;100.00
60373;BME280;46216;52.220;5.134;2022-12-07T12:33:37;101832.03;;;7.36;100.00
60373;BME280;46216;52.220;5.134;2022-12-07T12:47:00;101814.28;;;6.75;100.00
60373;BME280;46216;52.220;5.134;2022-12-07T12:49:40;101818.81;;;6.73;100.00
60373;BME280;46216;52.220;5.134;2022-12-07T12:57:31;101800.31;;;6.72;100.00
60373;BME280;46216;52.220;5.134;2022-12-07T12:59:59;101794.22;;;6.70;100.00
60373;BME280;46216;52.220;5.134;2022-12-07T13:04:58;101806.41;;;6.74;100.00
60373;BME280;46216;52.220;5.134;2022-12-07T13:23:51;101769.44;;;6.71;100.00
60373;BME280;46216;52.220;5.134;2022-12-07T13:26:41;101766.09;;;6.66;100.00
60373;BME280;46216;52.220;5.134;2022-12-07T13:31:53;101750.91;;;6.71;100.00
60373;BME280;46216;52.220;5.134;2022-12-07T13:34:37;101751.84;;;6.70;100.00
60373;BME280;46216;52.220;5.134;2022-12-07T13:39:52;101748.47;;;6.44;100.00
60373;BME280;46216;52.220;5.134;2022-12-07T13:42:24;101738.56;;;6.49;100.00
60373;BME280;46216;52.220;5.134;2022-12-07T13:44:51;101735.03;;;6.49;100.00
60373;BME280;46216;52.220;5.134;2022-12-07T13:49:56;101734.84;;;6.53;100.00
60373;BME280;46216;52.220;5.134;2022-12-07T13:52:24;101736.56;;;6.54;100.00
60373;BME280;46216;52.220;5.134;2022-12-07T13:55:00;101741.88;;;6.54;100.00
60373;BME280;46216;52.220;5.134;2022-12-07T13:57:27;101746.31;;;6.54;100.00
60373;BME280;46216;52.220;5.134;2022-12-07T13:59:54;101737.50;;;6.53;100.00
60373;BME280;46216;52.220;5.134;2022-12-07T14:02:27;101740.28;;;6.50;100.00
60373;BME280;46216;52.220;5.134;2022-12-07T14:05:22;101732.78;;;6.39;100.00
60373;BME280;46216;52.220;5.134;2022-12-07T14:12:53;101731.19;;;6.35;100.00
60373;BME280;46216;52.220;5.134;2022-12-07T14:15:25;101724.34;;;6.30;100.00
60373;BME280;46216;52.220;5.134;2022-12-07T14:17:54;101715.66;;;6.26;100.00
60373;BME280;46216;52.220;5.134;2022-12-07T14:20:40;101716.59;;;6.25;100.00
60373;BME280;46216;52.220;5.134;2022-12-07T14:23:22;101711.34;;;6.24;100.00
60373;BME280;46216;52.220;5.134;2022-12-07T14:25:50;101712.28;;;6.23;100.00
60373;BME280;46216;52.220;5.134;2022-12-07T14:28:33;101709.88;;;6.16;100.00
60373;BME280;46216;52.220;5.134;2022-12-07T14:31:00;101710.75;;;6.17;100.00
60373;BME280;46216;52.220;5.134;2022-12-07T14:33:26;101701.19;;;6.13;100.00
60373;BME280;46216;52.220;5.134;2022-12-07T14:35:52;101704.78;;;6.12;100.00
60373;BME280;46216;52.220;5.134;2022-12-07T14:38:22;101699.63;;;6.09;100.00
60373;BME280;46216;52.220;5.134;2022-12-07T14:40:48;101702.19;;;6.10;100.00
60373;BME280;46216;52.220;5.134;2022-12-07T14:43:15;101700.47;;;6.09;100.00
60373;BME280;46216;52.220;5.134;2022-12-07T14:45:41;101709.22;;;6.11;100.00
60373;BME280;46216;52.220;5.134;2022-12-07T14:48:10;101706.56;;;6.11;100.00
60373;BME280;46216;52.220;5.134;2022-12-07T14:50:43;101717.16;;;6.11;100.00
60373;BME280;46216;52.220;5.134;2022-12-07T14:53:13;101718.88;;;6.12;100.00
60373;BME280;46216;52.220;5.134;2022-12-07T14:55:39;101717.16;;;6.11;100.00